Time;durP1;ratioP1;P1;durP2;ratioP2;P2;SDS_P1;SDS_P2;PMS_P1;PMS_P2;Temp;Humidity;BMP_temperature;BMP_pressure;BME280_temperature;BME280_humidity;BME280_pressure;Samples;Min_cycle;Max_cycle;Signal;HPM_P1;HPM_P2
2022/09/20 00:01:09;;;;;;;8.13;2.08;;;8.80;99.90;;;;;;5030847;28;20189;-84
2022/09/20 00:03:37;;;;;;;3.30;1.20;;;8.80;99.90;;;;;;5025151;28;20112;-84
2022/09/20 00:06:05;;;;;;;4.85;1.50;;;8.90;99.90;;;;;;5031040;28;20513;-84
2022/09/20 00:08:31;;;;;;;7.07;1.75;;;8.90;99.90;;;;;;5030943;28;20032;-85
2022/09/20 00:11:00;;;;;;;6.68;2.45;;;9.00;99.90;;;;;;5031972;28;20030;-84
2022/09/20 00:13:26;;;;;;;9.85;2.75;;;9.00;99.90;;;;;;5030742;28;20044;-84
2022/09/20 00:15:52;;;;;;;7.75;2.60;;;9.00;99.90;;;;;;5032275;28;20077;-84
2022/09/20 00:18:17;;;;;;;6.57;2.15;;;9.00;99.90;;;;;;5030605;28;20034;-85
2022/09/20 00:20:47;;;;;;;5.90;1.80;;;9.00;99.90;;;;;;5030582;28;20041;-84
2022/09/20 00:23:13;;;;;;;3.85;1.17;;;9.00;99.90;;;;;;5031127;28;20409;-85
2022/09/20 00:25:38;;;;;;;3.30;1.10;;;8.90;99.90;;;;;;5031870;28;20021;-85
2022/09/20 00:28:05;;;;;;;2.83;0.88;;;8.90;99.90;;;;;;5031719;28;20037;-85
2022/09/20 00:30:32;;;;;;;2.53;0.90;;;8.90;99.90;;;;;;5029753;28;20151;-85
2022/09/20 00:32:58;;;;;;;3.10;0.82;;;8.90;99.90;;;;;;5036865;28;20026;-86
2022/09/20 00:35:24;;;;;;;3.17;1.15;;;8.80;99.90;;;;;;5038493;28;20037;-85
2022/09/20 00:37:49;;;;;;;4.05;1.15;;;8.70;99.90;;;;;;5036607;28;20125;-84
2022/09/20 00:40:19;;;;;;;2.95;1.05;;;8.70;99.90;;;;;;5034378;28;20041;-84
2022/09/20 00:42:45;;;;;;;3.42;0.80;;;8.70;99.90;;;;;;5037529;28;20113;-84
2022/09/20 00:45:20;;;;;;;2.15;1.00;;;8.80;99.90;;;;;;5035653;28;20025;-85
2022/09/20 00:48:14;;;;;;;2.63;0.73;;;8.70;99.90;;;;;;5027797;28;20084;-85
2022/09/20 00:50:48;;;;;;;4.43;0.90;;;8.70;99.90;;;;;;5023639;28;20073;-85
2022/09/20 00:53:25;;;;;;;2.20;0.70;;;8.80;99.90;;;;;;5028261;28;20482;-85
2022/09/20 00:56:01;;;;;;;1.60;0.60;;;8.80;99.90;;;;;;5029379;28;20049;-85
2022/09/20 00:58:31;;;;;;;4.30;0.80;;;8.70;99.90;;;;;;5029002;28;20029;-85
2022/09/20 01:00:56;;;;;;;2.28;0.63;;;8.70;99.90;;;;;;5030281;28;20067;-85
2022/09/20 01:03:25;;;;;;;2.13;0.70;;;8.80;99.90;;;;;;5031865;28;20037;-85
2022/09/20 01:05:52;;;;;;;2.20;0.68;;;8.90;99.90;;;;;;5029375;28;20041;-85
2022/09/20 01:08:19;;;;;;;3.30;0.60;;;8.80;99.90;;;;;;5027511;28;20401;-86
2022/09/20 01:10:45;;;;;;;1.10;0.50;;;8.80;99.90;;;;;;5029819;28;20472;-85
2022/09/20 01:13:10;;;;;;;2.20;0.50;;;8.70;99.90;;;;;;5030374;28;20030;-86
2022/09/20 01:15:39;;;;;;;1.27;0.50;;;8.70;99.90;;;;;;5026337;28;20021;-85
2022/09/20 01:18:08;;;;;;;1.20;0.50;;;8.70;99.90;;;;;;5025356;28;20033;-85
2022/09/20 01:20:41;;;;;;;1.38;0.30;;;8.70;99.90;;;;;;5025970;28;20064;-86
2022/09/20 01:23:21;;;;;;;2.45;0.65;;;8.60;99.90;;;;;;5028718;28;20027;-85
2022/09/20 01:26:05;;;;;;;2.45;0.60;;;8.60;99.90;;;;;;5018788;28;20026;-85
2022/09/20 01:28:31;;;;;;;1.88;0.85;;;8.60;99.90;;;;;;5030834;28;20026;-86
2022/09/20 01:31:35;;;;;;;2.17;0.60;;;8.60;99.90;;;;;;5029086;28;20033;-85
2022/09/20 01:34:15;;;;;;;2.75;0.70;;;8.60;99.90;;;;;;5031612;28;20026;-86
2022/09/20 01:36:50;;;;;;;3.97;0.57;;;8.60;99.90;;;;;;5032380;28;20021;-85
2022/09/20 01:39:35;;;;;;;1.02;0.35;;;8.60;99.90;;;;;;5033987;28;20033;-86
2022/09/20 01:42:08;;;;;;;4.40;0.43;;;8.60;99.90;;;;;;5021571;28;20049;-86
2022/09/20 01:44:44;;;;;;;1.30;0.30;;;8.60;99.90;;;;;;5031732;28;20033;-85
2022/09/20 01:47:39;;;;;;;1.48;0.50;;;8.70;99.90;;;;;;5031047;28;20526;-85
2022/09/20 01:50:23;;;;;;;5.60;1.20;;;8.60;99.90;;;;;;5029515;28;20049;-85
2022/09/20 01:52:48;;;;;;;0.73;0.40;;;8.70;99.90;;;;;;5030374;28;20044;-85
2022/09/20 01:55:48;;;;;;;2.38;0.60;;;8.70;99.90;;;;;;5032657;28;20037;-85
2022/09/20 01:58:35;;;;;;;1.08;0.32;;;8.70;99.90;;;;;;5032660;28;20029;-85
2022/09/20 02:01:13;;;;;;;1.05;0.40;;;8.70;99.90;;;;;;5029920;28;20036;-85
2022/09/20 02:04:02;;;;;;;3.00;0.65;;;8.80;99.90;;;;;;5031643;28;20159;-85
2022/09/20 02:06:57;;;;;;;0.93;0.40;;;8.80;99.90;;;;;;5031777;28;20028;-85
2022/09/20 02:09:29;;;;;;;0.80;0.43;;;8.70;99.90;;;;;;5033316;28;20037;-85
2022/09/20 02:12:21;;;;;;;4.65;0.60;;;8.80;99.90;;;;;;5033180;28;20505;-85
2022/09/20 02:15:06;;;;;;;1.00;0.50;;;8.80;99.90;;;;;;5031402;28;20049;-85
2022/09/20 02:17:47;;;;;;;1.13;0.55;;;8.70;99.90;;;;;;5031061;28;20026;-86
2022/09/20 02:20:32;;;;;;;0.52;0.30;;;8.70;99.90;;;;;;5032208;28;20037;-86
2022/09/20 02:23:06;;;;;;;1.05;0.45;;;8.70;99.90;;;;;;5024216;28;20022;-85
2022/09/20 02:25:54;;;;;;;2.22;0.47;;;8.70;99.90;;;;;;5032131;28;20025;-86
2022/09/20 02:28:29;;;;;;;0.70;0.30;;;8.70;99.90;;;;;;5033254;28;20021;-85
2022/09/20 02:31:25;;;;;;;2.03;0.60;;;8.70;99.90;;;;;;5033474;28;20502;-85
2022/09/20 02:34:18;;;;;;;1.67;0.50;;;8.70;99.90;;;;;;5032070;28;20026;-85
2022/09/20 02:37:14;;;;;;;2.72;0.68;;;8.70;99.90;;;;;;5030392;28;20024;-85
2022/09/20 02:39:43;;;;;;;2.75;0.95;;;8.70;99.90;;;;;;5043427;28;20014;-85
2022/09/20 02:42:22;;;;;;;0.88;0.57;;;8.70;99.90;;;;;;5037236;28;20029;-85
2022/09/20 02:45:10;;;;;;;1.10;0.30;;;8.70;99.90;;;;;;5031699;28;20028;-85
2022/09/20 02:47:37;;;;;;;2.28;0.47;;;8.80;99.90;;;;;;5031825;28;20382;-85
2022/09/20 02:50:45;;;;;;;3.72;0.20;;;8.70;99.90;;;;;;5031629;28;20022;-85
2022/09/20 02:53:43;;;;;;;0.95;0.35;;;8.80;99.90;;;;;;5029428;28;20022;-85
2022/09/20 02:56:21;;;;;;;2.88;0.35;;;8.80;99.90;;;;;;5033638;28;20548;-85
2022/09/20 02:59:17;;;;;;;1.00;0.38;;;8.80;99.90;;;;;;5024990;28;20021;-84
2022/09/20 03:02:30;;;;;;;2.05;0.40;;;8.90;99.90;;;;;;5041880;28;20462;-84
2022/09/20 03:05:30;;;;;;;2.40;0.40;;;8.90;99.90;;;;;;4991508;28;20037;-85
2022/09/20 03:08:17;;;;;;;1.00;0.30;;;8.90;99.90;;;;;;5002762;28;20034;-85
2022/09/20 03:11:06;;;;;;;1.27;0.30;;;9.00;99.90;;;;;;5022143;28;20037;-85
2022/09/20 03:14:10;;;;;;;2.85;0.30;;;9.00;99.90;;;;;;5026788;28;20087;-85
2022/09/20 03:16:45;;;;;;;0.52;0.28;;;9.00;99.90;;;;;;5030914;28;20044;-85
2022/09/20 03:19:55;;;;;;;0.93;0.40;;;9.00;99.90;;;;;;5034497;28;20435;-85
2022/09/20 03:22:30;;;;;;;1.13;0.50;;;9.00;99.90;;;;;;5034792;28;20021;-85
2022/09/20 03:25:25;;;;;;;2.92;0.40;;;9.00;99.90;;;;;;5035935;28;20029;-85
2022/09/20 03:28:03;;;;;;;0.95;0.40;;;8.90;99.90;;;;;;5030368;28;20025;-84
2022/09/20 03:30:44;;;;;;;1.00;0.40;;;9.00;99.90;;;;;;5033613;28;20045;-85
2022/09/20 03:33:31;;;;;;;1.08;0.50;;;9.00;99.90;;;;;;5031566;28;20187;-85
2022/09/20 03:36:38;;;;;;;0.82;0.28;;;8.90;99.90;;;;;;5032846;28;20041;-86
2022/09/20 03:39:25;;;;;;;0.82;0.43;;;8.90;99.90;;;;;;5007766;28;20029;-85
2022/09/20 03:42:24;;;;;;;1.45;0.43;;;8.80;99.90;;;;;;5019058;28;20414;-85
2022/09/20 03:45:14;;;;;;;1.02;0.55;;;8.80;99.90;;;;;;5032326;28;20394;-84
2022/09/20 03:48:13;;;;;;;0.82;0.32;;;8.80;99.90;;;;;;5028688;28;20017;-85
2022/09/20 03:50:42;;;;;;;1.50;0.45;;;8.80;99.90;;;;;;5025498;28;20104;-85
2022/09/20 03:53:32;;;;;;;1.80;0.40;;;8.90;99.90;;;;;;5028465;28;20038;-85
2022/09/20 03:56:33;;;;;;;0.95;0.35;;;8.90;99.90;;;;;;5028281;28;20100;-86
2022/09/20 03:59:12;;;;;;;1.25;0.47;;;8.90;99.90;;;;;;5029482;28;20104;-86
2022/09/20 04:02:04;;;;;;;1.65;0.45;;;8.90;99.90;;;;;;5026795;28;20028;-85
2022/09/20 04:04:41;;;;;;;0.70;0.30;;;8.90;99.90;;;;;;5027012;28;20034;-86
2022/09/20 04:07:46;;;;;;;1.45;0.40;;;8.80;99.90;;;;;;5022976;28;20493;-85
2022/09/20 04:10:31;;;;;;;1.35;0.57;;;8.80;99.90;;;;;;5023458;28;20025;-85
2022/09/20 04:13:25;;;;;;;1.10;0.35;;;8.80;99.90;;;;;;5026597;28;20045;-85
2022/09/20 04:16:03;;;;;;;0.80;0.40;;;8.80;99.90;;;;;;5024635;28;20034;-85
2022/09/20 04:18:55;;;;;;;1.15;0.30;;;8.80;99.90;;;;;;5028153;28;20026;-85
2022/09/20 04:21:27;;;;;;;0.80;0.28;;;8.80;99.90;;;;;;5025029;28;20485;-85
2022/09/20 04:24:11;;;;;;;1.15;0.50;;;8.80;99.90;;;;;;5030163;28;20032;-85
2022/09/20 04:26:51;;;;;;;0.75;0.32;;;8.80;99.90;;;;;;5023260;28;20041;-85
2022/09/20 04:29:39;;;;;;;0.82;0.50;;;8.80;99.90;;;;;;5024597;28;20061;-86
2022/09/20 04:32:10;;;;;;;0.65;0.30;;;8.80;99.90;;;;;;5028903;28;20029;-85
2022/09/20 04:37:47;;;;;;;1.65;0.70;;;8.90;99.90;;;;;;5014949;28;20060;-85
2022/09/20 04:40:16;;;;;;;4.22;0.50;;;8.90;99.90;;;;;;5028882;28;20502;-84
2022/09/20 04:43:01;;;;;;;1.48;0.50;;;8.90;99.90;;;;;;5026046;28;20467;-85
2022/09/20 04:45:55;;;;;;;3.10;0.60;;;9.00;99.90;;;;;;5028365;28;20048;-85
2022/09/20 04:48:39;;;;;;;2.70;0.40;;;8.90;99.90;;;;;;5026892;28;20457;-87
2022/09/20 04:51:07;;;;;;;2.53;1.30;;;8.90;99.90;;;;;;5026792;28;20033;-87
2022/09/20 04:53:33;;;;;;;2.78;0.88;;;8.90;99.90;;;;;;5031656;23;20112;-86
2022/09/20 04:56:19;;;;;;;2.25;0.60;;;9.00;99.90;;;;;;4988624;28;20026;-86
2022/09/20 04:59:04;;;;;;;1.73;0.60;;;8.90;99.90;;;;;;4988509;28;20386;-86
2022/09/20 05:01:58;;;;;;;1.63;0.57;;;9.00;99.90;;;;;;4989211;28;20030;-86
2022/09/20 05:04:38;;;;;;;3.30;0.50;;;9.00;99.90;;;;;;5004675;28;20041;-86
2022/09/20 05:07:41;;;;;;;3.17;0.80;;;9.00;99.90;;;;;;5007782;28;20040;-86
2022/09/20 05:10:26;;;;;;;2.63;0.90;;;9.00;99.90;;;;;;5028448;28;20443;-86
2022/09/20 05:13:20;;;;;;;1.80;0.68;;;9.00;99.90;;;;;;5006881;28;20041;-86
2022/09/20 05:15:58;;;;;;;6.10;1.17;;;9.00;99.90;;;;;;5008689;28;20030;-86
2022/09/20 05:18:30;;;;;;;1.20;0.50;;;9.00;99.90;;;;;;5011493;28;20033;-86
2022/09/20 05:21:17;;;;;;;1.90;0.80;;;9.00;99.90;;;;;;5008896;28;20076;-86
2022/09/20 05:23:56;;;;;;;1.95;0.68;;;9.10;99.90;;;;;;5013715;28;20456;-87
2022/09/20 05:26:39;;;;;;;2.88;0.95;;;9.00;99.90;;;;;;5013014;28;20025;-86
2022/09/20 05:29:25;;;;;;;2.15;0.77;;;9.00;99.90;;;;;;5011056;28;20033;-86
2022/09/20 05:32:02;;;;;;;3.78;0.88;;;9.00;99.90;;;;;;5012597;28;20025;-86
2022/09/20 05:34:58;;;;;;;1.98;0.38;;;9.10;99.90;;;;;;5012464;28;20115;-85
2022/09/20 05:37:32;;;;;;;1.33;0.60;;;9.10;99.90;;;;;;5009260;28;20034;-85
2022/09/20 05:40:05;;;;;;;1.98;0.80;;;9.10;99.90;;;;;;5009532;28;20022;-86
2022/09/20 05:42:43;;;;;;;3.30;0.82;;;9.10;99.90;;;;;;5011434;28;20034;-86
2022/09/20 05:45:46;;;;;;;1.45;0.50;;;9.10;99.90;;;;;;5010105;28;20049;-87
2022/09/20 05:48:43;;;;;;;1.73;0.70;;;9.10;99.90;;;;;;5014547;28;20030;-86
2022/09/20 05:51:29;;;;;;;1.60;0.50;;;9.10;99.90;;;;;;5009493;28;20034;-86
2022/09/20 05:54:33;;;;;;;1.88;0.40;;;9.20;99.90;;;;;;5010653;28;20026;-86
2022/09/20 05:57:30;;;;;;;3.63;0.55;;;9.20;99.90;;;;;;5006881;28;20072;-86
2022/09/20 06:00:09;;;;;;;2.38;0.70;;;9.20;99.90;;;;;;5005152;28;20058;-86
2022/09/20 06:02:52;;;;;;;5.15;0.65;;;9.20;99.90;;;;;;5005025;28;20018;-86
2022/09/20 06:05:45;;;;;;;1.75;0.95;;;9.30;99.90;;;;;;5012867;28;20025;-86
2022/09/20 06:08:56;;;;;;;2.30;0.85;;;9.30;99.90;;;;;;5015347;28;20026;-86
2022/09/20 06:11:30;;;;;;;2.25;0.70;;;9.30;99.90;;;;;;4968436;28;20113;-87
2022/09/20 06:14:30;;;;;;;2.22;0.70;;;9.40;99.90;;;;;;5013080;28;20053;-86
2022/09/20 06:17:05;;;;;;;2.10;1.05;;;9.40;99.90;;;;;;5007031;28;20026;-87
2022/09/20 06:20:24;;;;;;;3.40;0.73;;;9.40;99.90;;;;;;5010581;28;20038;-86
2022/09/20 06:22:56;;;;;;;3.15;0.98;;;9.40;99.90;;;;;;4985812;28;20069;-86
2022/09/20 06:25:41;;;;;;;;;;;9.50;99.90;;;;;;5012872;28;20025;-86
2022/09/20 06:28:17;;;;;;;3.13;1.10;;;9.60;99.90;;;;;;5012567;28;19906;-86
2022/09/20 06:30:47;;;;;;;1.67;0.70;;;9.60;99.90;;;;;;5012524;28;20540;-86
2022/09/20 06:33:16;;;;;;;3.05;0.80;;;9.60;99.90;;;;;;5012348;28;20093;-86
2022/09/20 06:42:11;;;;;;;2.47;0.70;;;9.70;99.90;;;;;;5012926;28;20433;-87
2022/09/20 06:44:43;;;;;;;2.38;0.77;;;9.70;99.90;;;;;;5011390;28;20030;-86
2022/09/20 06:47:12;;;;;;;2.13;0.98;;;9.80;99.90;;;;;;5008687;28;20026;-87
2022/09/20 06:49:41;;;;;;;1.73;0.75;;;9.90;99.90;;;;;;5006933;28;20054;-88
2022/09/20 06:52:10;;;;;;;3.28;0.82;;;9.90;99.90;;;;;;5010766;28;20064;-88
2022/09/20 06:54:36;;;;;;;2.17;0.80;;;10.00;99.90;;;;;;5011795;28;20049;-88
2022/09/20 06:57:04;;;;;;;2.58;1.00;;;10.10;99.90;;;;;;5011257;28;20030;-87
2022/09/20 06:59:30;;;;;;;2.13;0.70;;;10.10;99.90;;;;;;5010635;28;20483;-88
2022/09/20 07:01:56;;;;;;;1.92;0.77;;;10.40;99.90;;;;;;5010764;28;20394;-88
2022/09/20 07:04:25;;;;;;;4.50;0.80;;;10.20;99.90;;;;;;5011206;28;20033;-87
2022/09/20 07:06:52;;;;;;;4.03;0.80;;;10.30;99.90;;;;;;5012472;28;20034;-87
2022/09/20 07:09:17;;;;;;;1.90;0.90;;;10.40;99.90;;;;;;5010321;28;20041;-88
2022/09/20 07:11:45;;;;;;;2.55;0.75;;;10.50;99.90;;;;;;5010286;28;20026;-88
2022/09/20 07:14:10;;;;;;;4.50;1.00;;;10.50;99.90;;;;;;5011464;28;20018;-87
2022/09/20 07:16:37;;;;;;;2.40;0.80;;;10.70;99.90;;;;;;5002239;28;20022;-87
2022/09/20 07:19:04;;;;;;;2.22;0.73;;;10.70;99.90;;;;;;5009993;28;20025;-88
2022/09/20 07:21:30;;;;;;;2.45;0.85;;;10.70;99.90;;;;;;5011134;28;20025;-88
2022/09/20 07:23:56;;;;;;;1.75;0.90;;;10.80;99.90;;;;;;5008904;28;20037;-88
2022/09/20 07:26:25;;;;;;;2.08;1.00;;;11.00;99.90;;;;;;5010194;28;20066;-88
2022/09/20 07:28:51;;;;;;;2.10;0.45;;;11.00;99.90;;;;;;5009054;28;20495;-88
2022/09/20 07:31:19;;;;;;;2.25;0.80;;;11.10;99.90;;;;;;5009802;28;20073;-88
2022/09/20 07:33:45;;;;;;;3.55;0.73;;;11.10;99.90;;;;;;5009599;28;20058;-88
2022/09/20 07:36:12;;;;;;;1.75;0.60;;;11.20;99.90;;;;;;5009998;28;20067;-88
2022/09/20 07:38:38;;;;;;;2.22;0.63;;;11.20;99.90;;;;;;5008330;28;20022;-88
2022/09/20 07:41:04;;;;;;;2.20;0.57;;;11.00;99.90;;;;;;5005738;28;20041;-89
2022/09/20 07:43:30;;;;;;;2.70;0.63;;;10.90;99.90;;;;;;5008979;28;20013;-88
2022/09/20 07:45:58;;;;;;;3.95;1.10;;;11.00;99.90;;;;;;5010622;28;20014;-88
2022/09/20 07:48:30;;;;;;;2.08;0.75;;;11.70;99.90;;;;;;5009560;28;20083;-89
2022/09/20 07:50:56;;;;;;;;;;;10.90;99.90;;;;;;5010223;28;20498;-89
2022/09/20 07:53:23;;;;;;;3.33;0.50;;;11.10;99.90;;;;;;5009933;28;19955;-89
2022/09/20 07:56:17;;;;;;;1.80;0.60;;;11.20;99.90;;;;;;5008859;28;20486;-89
2022/09/20 07:58:43;;;;;;;2.80;0.60;;;11.40;99.90;;;;;;5005993;28;20037;-88
2022/09/20 08:01:12;;;;;;;2.40;0.60;;;11.50;99.90;;;;;;5007792;28;20045;-89
2022/09/20 08:03:38;;;;;;;2.05;1.02;;;11.90;99.90;;;;;;5010149;28;20072;-88
2022/09/20 08:06:10;;;;;;;1.98;0.75;;;11.60;99.90;;;;;;5008703;28;20026;-88
2022/09/20 08:08:43;;;;;;;3.75;0.82;;;11.60;99.90;;;;;;5010087;28;20076;-87
2022/09/20 08:11:18;;;;;;;2.15;0.40;;;11.60;99.90;;;;;;5008096;28;20080;-88
2022/09/20 08:13:48;;;;;;;2.25;0.43;;;11.70;99.90;;;;;;5010123;28;20503;-88
2022/09/20 08:16:15;;;;;;;2.75;0.75;;;12.00;99.90;;;;;;5006841;28;20022;-89
2022/09/20 08:18:46;;;;;;;4.18;0.50;;;12.10;99.90;;;;;;5007901;28;20030;-89
2022/09/20 08:21:12;;;;;;;2.13;0.35;;;12.10;99.90;;;;;;5008720;28;20033;-88
2022/09/20 08:23:41;;;;;;;3.03;0.60;;;12.10;99.90;;;;;;5007411;28;20478;-88
2022/09/20 08:26:17;;;;;;;3.83;0.90;;;12.00;99.90;;;;;;5006246;28;20441;-88
2022/09/20 08:28:46;;;;;;;0.43;0.20;;;12.00;99.90;;;;;;5007939;28;20030;-89
2022/09/20 08:31:30;;;;;;;1.30;0.28;;;12.20;99.90;;;;;;5009346;28;20108;-89
2022/09/20 08:34:01;;;;;;;3.28;0.60;;;12.10;99.90;;;;;;5008748;28;20022;-88
2022/09/20 08:36:44;;;;;;;2.83;0.50;;;12.10;99.90;;;;;;5009932;28;20034;-90
2022/09/20 08:42:38;;;;;;;0.40;0.20;;;11.90;99.90;;;;;;5011437;28;20029;-88
2022/09/20 08:45:30;;;;;;;3.42;0.35;;;11.70;99.90;;;;;;5011736;28;20030;-89
2022/09/20 08:48:08;;;;;;;2.33;0.57;;;11.00;99.90;;;;;;5009935;28;20042;-88
2022/09/20 08:50:36;;;;;;;1.92;0.30;;;11.40;99.90;;;;;;5013651;28;20495;-88
2022/09/20 08:53:15;;;;;;;0.93;0.22;;;11.40;99.90;;;;;;5014670;28;20405;-88
2022/09/20 08:55:42;;;;;;;1.05;0.35;;;11.80;99.90;;;;;;5012807;28;20041;-87
2022/09/20 08:58:13;;;;;;;1.58;0.20;;;12.10;99.90;;;;;;5012116;28;20040;-89
2022/09/20 09:00:41;;;;;;;0.52;0.20;;;12.30;99.90;;;;;;5011717;28;20026;-89
2022/09/20 09:03:12;;;;;;;2.55;0.25;;;12.70;99.90;;;;;;5020175;28;20132;-88
2022/09/20 09:05:47;;;;;;;0.93;0.22;;;12.90;99.90;;;;;;5031049;28;20025;-89
2022/09/20 09:08:26;;;;;;;1.48;0.20;;;13.00;99.90;;;;;;5031306;28;20092;-89
2022/09/20 09:11:00;;;;;;;1.05;0.30;;;13.00;99.90;;;;;;5024713;28;20029;-88
2022/09/20 09:13:51;;;;;;;1.05;0.28;;;13.20;99.90;;;;;;5016446;28;20034;-88
2022/09/20 09:16:19;;;;;;;0.95;0.28;;;12.80;99.90;;;;;;5014455;28;20026;-88
2022/09/20 09:18:49;;;;;;;0.70;0.32;;;12.90;99.90;;;;;;5014000;28;20041;-88
2022/09/20 09:21:35;;;;;;;2.03;0.30;;;12.80;99.90;;;;;;5014660;28;20022;-88
2022/09/20 09:24:15;;;;;;;1.30;0.52;;;13.10;99.90;;;;;;5011203;28;20131;-88
2022/09/20 09:26:42;;;;;;;0.80;0.20;;;13.10;99.90;;;;;;5006945;28;20514;-88
2022/09/20 09:29:18;;;;;;;0.68;0.10;;;13.00;99.90;;;;;;5004867;28;20041;-88
2022/09/20 09:31:54;;;;;;;0.68;0.20;;;12.80;99.90;;;;;;5011287;28;20176;-89
2022/09/20 09:34:27;;;;;;;1.75;0.38;;;12.60;99.90;;;;;;5012923;28;20030;-88
2022/09/20 09:36:56;;;;;;;;;;;12.30;99.90;;;;;;5014921;28;20021;-88
2022/09/20 09:39:28;;;;;;;1.17;0.22;;;12.30;99.90;;;;;;5025576;28;19916;-88
2022/09/20 09:41:59;;;;;;;2.97;0.30;;;12.20;99.90;;;;;;5010496;28;20021;-87
2022/09/20 09:44:32;;;;;;;1.93;0.40;;;12.10;99.90;;;;;;5013228;28;20541;-88
2022/09/20 09:46:59;;;;;;;1.70;0.55;;;12.10;99.90;;;;;;5013187;28;20136;-88
2022/09/20 09:49:39;;;;;;;1.42;0.30;;;12.00;99.90;;;;;;5011803;28;20494;-87
2022/09/20 09:52:25;;;;;;;0.55;0.20;;;12.10;99.90;;;;;;5011769;28;20498;-88
2022/09/20 09:54:58;;;;;;;1.00;0.28;;;12.20;99.90;;;;;;5025403;28;20482;-87
2022/09/20 09:58:11;;;;;;;6.30;0.40;;;12.60;99.90;;;;;;5011588;28;20029;-88
2022/09/20 10:00:44;;;;;;;1.35;0.30;;;13.10;99.90;;;;;;4978053;28;20161;-88
2022/09/20 10:03:29;;;;;;;2.15;0.35;;;13.30;99.90;;;;;;5007099;28;20026;-87
2022/09/20 10:06:17;;;;;;;1.20;0.20;;;13.20;99.90;;;;;;5010154;28;20021;-89
2022/09/20 10:09:10;;;;;;;1.23;0.40;;;13.10;99.90;;;;;;5008169;28;20761;-87
2022/09/20 10:12:10;;;;;;;0.80;0.22;;;12.90;99.90;;;;;;5007744;28;20022;-87
2022/09/20 10:14:36;;;;;;;2.25;0.45;;;12.80;99.90;;;;;;5010525;28;20117;-87
2022/09/20 10:17:12;;;;;;;2.65;0.30;;;12.70;99.90;;;;;;5013534;28;20097;-86
2022/09/20 10:19:40;;;;;;;1.52;0.25;;;12.80;99.90;;;;;;5009676;28;20022;-88
2022/09/20 10:22:07;;;;;;;1.33;0.30;;;12.80;99.90;;;;;;5011595;28;20033;-87
2022/09/20 10:24:54;;;;;;;2.97;0.70;;;12.80;99.90;;;;;;5011488;28;20021;-87
2022/09/20 10:27:54;;;;;;;2.42;0.45;;;12.90;99.90;;;;;;5011617;28;20018;-88
2022/09/20 10:30:30;;;;;;;3.35;0.55;;;13.10;99.90;;;;;;4959495;28;20121;-88
2022/09/20 10:33:05;;;;;;;1.90;0.45;;;13.20;99.90;;;;;;5012547;28;20072;-88
2022/09/20 10:35:50;;;;;;;1.55;0.20;;;13.30;99.90;;;;;;5012745;28;20088;-88
2022/09/20 10:38:26;;;;;;;0.63;0.25;;;13.30;99.90;;;;;;5006057;28;20034;-88
2022/09/20 10:43:45;;;;;;;1.63;0.50;;;13.30;99.90;;;;;;4988428;28;20041;-88
2022/09/20 10:46:29;;;;;;;0.38;0.20;;;13.20;99.90;;;;;;5005053;28;20115;-88
2022/09/20 10:49:10;;;;;;;1.35;0.17;;;13.30;99.90;;;;;;5011022;28;20025;-88
2022/09/20 10:52:01;;;;;;;1.15;0.20;;;13.80;99.90;;;;;;5009663;28;20410;-88
2022/09/20 10:54:51;;;;;;;0.95;0.10;;;14.10;99.90;;;;;;5010549;28;20034;-88
2022/09/20 10:57:51;;;;;;;0.75;0.30;;;14.10;99.90;;;;;;5012100;28;20018;-88
2022/09/20 11:00:22;;;;;;;1.95;0.40;;;14.10;99.90;;;;;;5009144;28;20053;-88
2022/09/20 11:03:03;;;;;;;2.15;0.28;;;14.00;99.90;;;;;;5007963;28;20018;-87
2022/09/20 11:05:50;;;;;;;0.75;0.40;;;13.80;99.90;;;;;;5003909;28;20080;-88
2022/09/20 11:08:24;;;;;;;0.43;0.20;;;13.80;99.90;;;;;;5010242;28;20482;-88
2022/09/20 11:10:54;;;;;;;1.40;0.30;;;13.80;99.90;;;;;;5008090;28;20375;-87
2022/09/20 11:13:53;;;;;;;0.52;0.20;;;13.70;99.90;;;;;;5011214;28;20026;-88
2022/09/20 11:16:33;;;;;;;0.95;0.28;;;13.80;99.90;;;;;;4987367;28;20034;-88
2022/09/20 11:19:07;;;;;;;1.60;0.20;;;13.70;99.90;;;;;;5008924;28;20021;-88
2022/09/20 11:21:38;;;;;;;0.68;0.17;;;13.80;99.90;;;;;;5009545;28;20026;-87
2022/09/20 11:24:10;;;;;;;1.92;0.20;;;14.10;99.90;;;;;;5007959;28;20052;-87
2022/09/20 11:26:48;;;;;;;0.30;0.20;;;13.70;99.90;;;;;;5012365;28;20022;-87
2022/09/20 11:29:31;;;;;;;1.38;0.63;;;13.70;99.90;;;;;;5007168;28;20041;-86
2022/09/20 11:32:04;;;;;;;4.70;0.20;;;14.10;99.90;;;;;;5010320;28;20073;-87
2022/09/20 11:34:35;;;;;;;1.40;0.28;;;14.50;99.90;;;;;;5009544;28;20398;-88
2022/09/20 11:37:04;;;;;;;0.43;0.20;;;14.90;99.90;;;;;;5010982;28;20486;-89
2022/09/20 11:39:38;;;;;;;2.03;0.17;;;15.10;99.90;;;;;;5009565;28;20382;-88
2022/09/20 11:42:05;;;;;;;1.55;0.30;;;15.40;99.90;;;;;;5010510;28;20329;-87
2022/09/20 11:44:32;;;;;;;0.68;0.15;;;15.60;99.90;;;;;;5010956;28;20040;-88
2022/09/20 11:47:04;;;;;;;2.70;0.15;;;15.70;99.90;;;;;;5010656;28;20041;-88
2022/09/20 11:49:59;;;;;;;0.30;0.10;;;15.60;99.90;;;;;;5009048;28;20026;-88
2022/09/20 11:53:10;;;;;;;0.88;0.20;;;15.70;99.90;;;;;;5009495;28;20025;-88
2022/09/20 11:55:52;;;;;;;0.32;0.20;;;15.80;99.90;;;;;;4964001;28;20034;-88
2022/09/20 11:58:21;;;;;;;0.95;0.20;;;15.60;99.90;;;;;;5010247;28;20018;-88
2022/09/20 12:00:49;;;;;;;0.88;0.28;;;14.90;99.90;;;;;;5009436;28;20038;-87
2022/09/20 12:03:33;;;;;;;2.45;0.20;;;14.80;99.90;;;;;;5003452;28;20050;-87
2022/09/20 12:06:32;;;;;;;0.82;0.20;;;14.50;99.90;;;;;;5010283;28;20036;-88
2022/09/20 12:09:00;;;;;;;2.75;0.30;;;14.40;99.90;;;;;;5008831;28;20379;-88
2022/09/20 12:11:41;;;;;;;2.33;0.15;;;14.30;99.90;;;;;;5007979;28;20032;-88
2022/09/20 12:14:23;;;;;;;2.20;0.40;;;14.80;99.90;;;;;;5007444;28;20037;-88
2022/09/20 12:16:50;;;;;;;2.88;0.40;;;14.40;99.90;;;;;;5003195;28;20025;-88
2022/09/20 12:19:31;;;;;;;1.52;0.22;;;14.60;99.90;;;;;;5009369;28;20105;-87
2022/09/20 12:21:57;;;;;;;1.08;0.38;;;14.30;99.90;;;;;;5006306;28;20146;-87
2022/09/20 12:24:30;;;;;;;3.08;0.55;;;14.30;99.90;;;;;;5027902;28;20046;-87
2022/09/20 12:27:05;;;;;;;3.00;0.43;;;14.30;99.90;;;;;;5009917;28;20050;-87
2022/09/20 12:29:31;;;;;;;2.63;0.40;;;14.40;99.90;;;;;;5009570;28;20041;-87
2022/09/20 12:32:01;;;;;;;1.20;0.47;;;14.50;99.90;;;;;;5011727;28;20564;-88
2022/09/20 12:34:56;;;;;;;0.82;0.20;;;14.80;99.90;;;;;;5008984;28;20489;-88
2022/09/20 12:37:25;;;;;;;0.70;0.20;;;14.50;99.90;;;;;;5009545;28;20026;-87
2022/09/20 12:39:54;;;;;;;0.40;0.20;;;14.60;99.90;;;;;;5010887;28;20038;-87
2022/09/20 12:42:29;;;;;;;1.20;0.20;;;14.80;99.90;;;;;;5010963;28;20033;-88
2022/09/20 12:45:03;;;;;;;0.65;0.10;;;15.40;99.90;;;;;;5010720;28;20033;-87
2022/09/20 12:47:38;;;;;;;1.67;0.30;;;15.80;99.90;;;;;;5010447;28;20061;-87
2022/09/20 12:53:02;;;;;;;1.83;0.40;;;16.60;99.90;;;;;;5008765;28;20092;-87
2022/09/20 12:55:40;;;;;;;0.80;0.30;;;17.00;97.00;;;;;;5011863;28;20053;-86
2022/09/20 12:58:14;;;;;;;1.73;0.20;;;17.00;96.10;;;;;;5009391;28;20265;-87
2022/09/20 13:00:56;;;;;;;1.10;0.30;;;17.30;96.30;;;;;;5004611;28;20402;-88
2022/09/20 13:03:40;;;;;;;;;;;17.40;96.30;;;;;;5008677;28;20157;-87
2022/09/20 13:06:18;;;;;;;0.80;0.30;;;17.60;95.10;;;;;;5015413;28;19917;-88
2022/09/20 13:08:59;;;;;;;1.58;0.32;;;17.80;95.60;;;;;;5025057;28;20055;-86
2022/09/20 13:12:09;;;;;;;1.08;0.40;;;17.80;95.30;;;;;;5013619;28;20405;-86
2022/09/20 13:14:39;;;;;;;1.13;0.30;;;17.90;96.30;;;;;;5005429;23;20107;-82
2022/09/20 13:17:12;;;;;;;2.83;0.47;;;18.20;95.40;;;;;;5040817;28;20018;-82
2022/09/20 13:19:43;;;;;;;0.45;0.40;;;18.20;95.70;;;;;;5047602;28;20558;-81
2022/09/20 13:22:27;;;;;;;0.50;0.10;;;17.60;96.10;;;;;;5049093;28;20089;-82
2022/09/20 13:24:57;;;;;;;0.40;0.10;;;17.10;96.00;;;;;;5045276;28;20032;-81
2022/09/20 13:27:44;;;;;;;1.65;0.20;;;16.60;96.10;;;;;;5042865;28;20032;-82
2022/09/20 13:30:28;;;;;;;1.40;0.80;;;16.60;95.80;;;;;;5047807;28;20088;-82
2022/09/20 13:32:54;;;;;;;0.20;0.10;;;17.10;95.30;;;;;;5057250;28;20397;-82
2022/09/20 13:35:30;;;;;;;1.42;0.40;;;17.40;94.60;;;;;;5053466;28;20040;-82
2022/09/20 13:37:57;;;;;;;0.60;0.20;;;17.20;93.90;;;;;;5057700;28;20025;-83
2022/09/20 13:40:38;;;;;;;0.43;0.20;;;17.00;94.60;;;;;;5048566;28;20036;-82
2022/09/20 13:43:28;;;;;;;0.87;0.30;;;16.70;94.80;;;;;;5056627;28;20029;-82
2022/09/20 13:46:06;;;;;;;0.20;0.10;;;16.30;94.90;;;;;;5051380;28;20017;-82
2022/09/20 13:48:32;;;;;;;0.95;0.30;;;16.10;95.80;;;;;;5053453;28;20036;-82
2022/09/20 13:50:58;;;;;;;0.90;0.30;;;15.80;97.50;;;;;;5047621;28;20113;-82
2022/09/20 13:53:27;;;;;;;0.98;0.17;;;15.80;98.20;;;;;;5054800;28;20151;-82
2022/09/20 13:55:56;;;;;;;1.50;0.20;;;15.60;98.40;;;;;;5052980;28;20040;-82
2022/09/20 13:58:33;;;;;;;1.35;0.28;;;15.60;99.50;;;;;;5053441;28;20113;-81
2022/09/20 14:01:03;;;;;;;3.45;0.45;;;15.70;99.50;;;;;;5056695;28;20032;-81
2022/09/20 14:03:31;;;;;;;1.52;0.20;;;15.70;98.60;;;;;;5057457;28;20032;-81
2022/09/20 14:06:12;;;;;;;1.23;0.40;;;15.70;98.90;;;;;;5045251;28;20088;-81
2022/09/20 14:08:43;;;;;;;0.40;0.15;;;15.60;97.90;;;;;;5050870;28;20021;-80